Disclaimer

Please do not use the information listed here in-flight or in-navigation, as they are not provided to us by the airports but are provided by volunteers, so they might be outdated.

Search


Regions


Airport information page

No radio frequency information is available.

Airport informations:
Latitude: 09° 20' 02.17" S
Longitude: 054° 57' 55.52" W
Elevation: 1762 feet - 537 meters
Operating hours: N/A
Operating agency: Military
Timezone: UTC-4(-3DT)
Fuel: Jet A1, without icing nhibitor.

Runway information:
12/30 - 8537 x 148 feet< - >2602 x 45 meters

Recent METARs:
SBCC 202000Z 33003KT 290V360 9999 FEW030 FEW035TCU SCT100 22/21 Q1009 RETS
SBCC 202000Z 33003KT 290V360 9999 FEW030 FEW035TCU SCT100 22/21 Q1009 RETS
SBCC 202000Z 33003KT 290V360 9999 FEW030 FEW035TCU SCT100 22/21 Q1009 RETS

Airport on the map: